Time;durP1;ratioP1;P1;durP2;ratioP2;P2;SDS_P1;SDS_P2;PMS_P1;PMS_P2;Temp;Humidity;BMP_temperature;BMP_pressure;BME280_temperature;BME280_humidity;BME280_pressure;Samples;Min_cycle;Max_cycle;Signal;HPM_P1;HPM_P2
2023/09/15 00:02:03;;;;;;;2.67;1.13;;;18.80;97.00;;;;;;5033057;28;20210;-63
2023/09/15 00:04:30;;;;;;;3.97;1.50;;;18.80;97.00;;;;;;5031622;28;20230;-63
2023/09/15 00:06:57;;;;;;;3.13;1.65;;;18.90;97.10;;;;;;5033518;28;20554;-63
2023/09/15 00:09:24;;;;;;;2.63;1.17;;;18.80;97.10;;;;;;5033254;28;20758;-63
2023/09/15 00:11:54;;;;;;;4.88;1.75;;;18.80;97.10;;;;;;5032380;28;20307;-62
2023/09/15 00:14:23;;;;;;;2.85;1.60;;;18.80;97.20;;;;;;5032946;28;20197;-62
2023/09/15 00:16:51;;;;;;;2.63;1.40;;;18.80;97.20;;;;;;5032884;28;20210;-63
2023/09/15 00:19:18;;;;;;;4.10;1.50;;;18.80;97.20;;;;;;5032787;28;20226;-63
2023/09/15 00:21:47;;;;;;;3.60;1.40;;;18.80;97.20;;;;;;5014611;28;20214;-63
2023/09/15 00:24:14;;;;;;;1.92;1.45;;;18.70;97.20;;;;;;5032438;28;20763;-63
2023/09/15 00:26:43;;;;;;;6.93;1.73;;;18.80;97.40;;;;;;5032926;28;20665;-63
2023/09/15 00:29:11;;;;;;;4.40;1.92;;;18.70;97.30;;;;;;5032304;28;20229;-63
2023/09/15 00:31:40;;;;;;;3.28;1.40;;;18.70;97.70;;;;;;5013468;28;20202;-63
2023/09/15 00:34:08;;;;;;;3.55;1.17;;;18.70;97.40;;;;;;5028657;28;20211;-63
2023/09/15 00:36:36;;;;;;;3.88;1.40;;;18.80;97.40;;;;;;5030286;28;20527;-64
2023/09/15 00:39:04;;;;;;;3.67;1.48;;;18.80;97.40;;;;;;5007584;28;20211;-63
2023/09/15 00:41:31;;;;;;;3.80;1.58;;;18.70;97.40;;;;;;5011413;28;20215;-63
2023/09/15 00:43:59;;;;;;;3.13;1.40;;;18.70;97.40;;;;;;5027251;28;20227;-63
2023/09/15 00:46:26;;;;;;;2.13;1.40;;;18.70;97.40;;;;;;5010402;28;20237;-63
2023/09/15 00:48:55;;;;;;;3.70;1.38;;;18.70;97.40;;;;;;5024273;28;20203;-63
2023/09/15 00:51:22;;;;;;;3.63;1.40;;;18.70;97.50;;;;;;5026849;28;20190;-63
2023/09/15 00:53:51;;;;;;;2.75;1.35;;;18.60;97.50;;;;;;5025678;28;20195;-63
2023/09/15 00:56:18;;;;;;;2.85;1.20;;;18.60;97.70;;;;;;5026665;28;20727;-63
2023/09/15 00:58:47;;;;;;;2.25;1.33;;;18.60;97.60;;;;;;5002836;28;20203;-63
2023/09/15 01:01:16;;;;;;;4.35;1.30;;;18.60;97.60;;;;;;5026431;28;20230;-63
2023/09/15 01:03:45;;;;;;;3.30;1.30;;;18.60;97.70;;;;;;5019284;28;20231;-63
2023/09/15 01:06:15;;;;;;;2.22;1.67;;;18.60;97.70;;;;;;5025561;28;20218;-63
2023/09/15 01:08:42;;;;;;;2.10;1.52;;;18.50;97.70;;;;;;5032035;28;20187;-62
2023/09/15 01:11:10;;;;;;;2.50;1.10;;;18.60;97.80;;;;;;5031248;28;20264;-63
2023/09/15 01:13:38;;;;;;;2.95;1.42;;;18.60;97.80;;;;;;5032265;28;20205;-62
2023/09/15 01:16:12;;;;;;;4.32;1.20;;;18.60;97.80;;;;;;5030429;28;20222;-63
2023/09/15 01:18:46;;;;;;;4.30;1.50;;;18.60;97.80;;;;;;5030262;28;20518;-62
2023/09/15 01:21:52;;;;;;;3.22;1.70;;;18.60;97.80;;;;;;5026553;28;20211;-63
2023/09/15 01:24:59;;;;;;;1.58;1.10;;;18.60;97.80;;;;;;4958265;28;20215;-63
2023/09/15 01:27:48;;;;;;;1.90;1.17;;;18.60;97.80;;;;;;5021966;28;20281;-62
2023/09/15 01:30:19;;;;;;;5.03;1.50;;;18.60;97.80;;;;;;5010339;28;20707;-63
2023/09/15 01:32:47;;;;;;;4.38;1.40;;;18.50;97.90;;;;;;5010086;28;20200;-63
2023/09/15 01:35:14;;;;;;;2.38;1.20;;;18.50;97.90;;;;;;5030943;28;20195;-63
2023/09/15 01:37:41;;;;;;;3.10;1.40;;;18.50;97.90;;;;;;5030312;28;20202;-63
2023/09/15 01:40:09;;;;;;;2.55;1.33;;;18.40;98.30;;;;;;5031207;28;20207;-63
2023/09/15 01:42:36;;;;;;;3.75;1.60;;;18.40;98.10;;;;;;5031007;28;20218;-63
2023/09/15 01:45:04;;;;;;;2.70;1.25;;;18.30;98.10;;;;;;5029887;28;20669;-63
2023/09/15 01:47:34;;;;;;;4.55;1.50;;;18.30;98.10;;;;;;5030595;28;20206;-63
2023/09/15 01:50:02;;;;;;;5.30;1.63;;;18.30;98.10;;;;;;5029876;28;20191;-63
2023/09/15 01:52:29;;;;;;;4.90;1.50;;;18.30;98.10;;;;;;5013668;28;20218;-63
2023/09/15 01:54:58;;;;;;;2.40;1.15;;;18.30;98.20;;;;;;5030541;28;20198;-63
2023/09/15 01:57:25;;;;;;;3.95;1.40;;;18.30;98.20;;;;;;5031007;28;20198;-63
2023/09/15 01:59:52;;;;;;;2.92;1.30;;;18.30;98.20;;;;;;5013221;28;20207;-63
2023/09/15 02:02:19;;;;;;;2.35;1.30;;;18.20;98.20;;;;;;5012969;28;20755;-64
2023/09/15 02:04:48;;;;;;;3.28;1.25;;;18.20;98.30;;;;;;5029517;28;20782;-63
2023/09/15 02:07:15;;;;;;;2.92;1.58;;;18.20;98.30;;;;;;5031133;28;20198;-64
2023/09/15 02:09:42;;;;;;;3.33;1.48;;;18.20;98.40;;;;;;5030257;28;20301;-63
2023/09/15 02:12:09;;;;;;;4.20;1.40;;;18.20;98.40;;;;;;5031132;28;20202;-63
2023/09/15 02:14:36;;;;;;;2.47;1.20;;;18.20;98.40;;;;;;5011672;28;20293;-63
2023/09/15 02:17:05;;;;;;;3.33;1.23;;;18.20;98.40;;;;;;5030860;28;20617;-63
2023/09/15 02:19:33;;;;;;;2.70;1.00;;;18.20;98.40;;;;;;5029978;28;20203;-63
2023/09/15 02:22:02;;;;;;;4.57;1.42;;;18.20;98.40;;;;;;5011088;28;20212;-63
2023/09/15 02:24:31;;;;;;;5.43;1.33;;;18.20;98.40;;;;;;5006156;28;20673;-63
2023/09/15 02:26:59;;;;;;;2.50;1.30;;;18.20;98.40;;;;;;5009707;28;20237;-63
2023/09/15 02:29:26;;;;;;;1.83;1.20;;;18.20;98.50;;;;;;5024766;28;20260;-62
2023/09/15 02:31:54;;;;;;;1.85;1.30;;;18.20;98.50;;;;;;5027185;28;20199;-63
2023/09/15 02:34:22;;;;;;;4.25;1.58;;;18.20;98.50;;;;;;5029099;28;20198;-63
2023/09/15 02:36:49;;;;;;;5.65;1.40;;;18.10;98.50;;;;;;5009807;28;20195;-63
2023/09/15 02:39:17;;;;;;;3.75;1.60;;;18.10;98.60;;;;;;5030011;28;20245;-63
2023/09/15 02:41:45;;;;;;;2.95;1.30;;;18.00;98.60;;;;;;5002777;28;20215;-64
2023/09/15 02:44:12;;;;;;;3.38;1.27;;;18.00;98.70;;;;;;5006589;28;20705;-63
2023/09/15 02:46:40;;;;;;;3.50;1.65;;;18.00;98.70;;;;;;5011554;28;20544;-64
2023/09/15 02:49:08;;;;;;;3.42;1.52;;;17.90;98.70;;;;;;5011726;28;20673;-63
2023/09/15 02:51:37;;;;;;;2.97;1.45;;;17.90;98.80;;;;;;5030159;28;20611;-63
2023/09/15 02:54:06;;;;;;;3.85;1.52;;;17.80;98.90;;;;;;5009816;28;20237;-62
2023/09/15 02:56:34;;;;;;;1.10;1.00;;;17.80;98.90;;;;;;5030640;28;20682;-62
2023/09/15 02:59:02;;;;;;;2.15;1.40;;;17.90;98.90;;;;;;5029749;28;20198;-64
2023/09/15 03:01:29;;;;;;;3.20;1.50;;;17.90;98.90;;;;;;5030354;28;20214;-63
2023/09/15 03:03:56;;;;;;;3.30;1.48;;;17.90;99.00;;;;;;5016663;28;20234;-64
2023/09/15 03:06:26;;;;;;;2.75;1.23;;;17.80;99.00;;;;;;5011865;28;20215;-62
2023/09/15 03:08:54;;;;;;;2.95;1.20;;;17.80;99.10;;;;;;5011890;28;20212;-63
2023/09/15 03:11:22;;;;;;;2.47;1.10;;;17.90;99.20;;;;;;5012470;28;20206;-63
2023/09/15 03:13:56;;;;;;;3.30;1.50;;;17.90;99.20;;;;;;5006701;28;20202;-64
2023/09/15 03:16:25;;;;;;;2.10;1.40;;;17.80;99.10;;;;;;5004407;28;20203;-64
2023/09/15 03:18:52;;;;;;;3.58;1.42;;;17.80;99.20;;;;;;5011540;28;20670;-63
2023/09/15 03:21:20;;;;;;;2.55;1.52;;;17.80;99.30;;;;;;5028969;28;20218;-63
2023/09/15 03:23:49;;;;;;;3.58;1.40;;;17.80;99.20;;;;;;5024071;28;20652;-63
2023/09/15 03:26:16;;;;;;;1.60;1.17;;;17.80;99.20;;;;;;5012371;28;20202;-64
2023/09/15 03:28:47;;;;;;;2.58;1.45;;;17.80;99.60;;;;;;5029806;28;20269;-64
2023/09/15 03:31:16;;;;;;;3.20;1.50;;;17.80;99.30;;;;;;5029713;28;20199;-63
2023/09/15 03:33:43;;;;;;;1.98;1.33;;;17.80;99.30;;;;;;5010521;28;20198;-63
2023/09/15 03:36:12;;;;;;;4.15;1.40;;;17.80;99.50;;;;;;5017491;28;20183;-63
2023/09/15 03:38:40;;;;;;;2.70;1.27;;;17.80;99.30;;;;;;5012440;28;20214;-63
2023/09/15 03:41:08;;;;;;;2.45;1.33;;;17.80;99.30;;;;;;5006361;28;20290;-62
2023/09/15 03:43:35;;;;;;;3.55;1.30;;;17.80;99.30;;;;;;5006031;28;20237;-62
2023/09/15 03:46:03;;;;;;;2.05;1.15;;;17.80;99.30;;;;;;5021310;28;20293;-62
2023/09/15 03:48:32;;;;;;;3.70;1.55;;;17.70;99.40;;;;;;5014959;28;20694;-63
2023/09/15 03:50:59;;;;;;;3.40;1.30;;;17.80;99.40;;;;;;5030440;28;20281;-63
2023/09/15 03:53:27;;;;;;;3.10;1.55;;;17.80;99.40;;;;;;5033229;28;20217;-63
2023/09/15 03:55:54;;;;;;;2.55;1.30;;;17.70;99.50;;;;;;5032852;28;20229;-64
2023/09/15 03:58:21;;;;;;;2.38;1.42;;;17.80;99.50;;;;;;5033220;28;20340;-62
2023/09/15 04:00:48;;;;;;;4.18;1.13;;;17.70;99.50;;;;;;5033256;28;20284;-63
2023/09/15 04:03:15;;;;;;;1.90;1.00;;;17.70;99.60;;;;;;5026707;28;20210;-63
2023/09/15 04:05:44;;;;;;;3.72;1.65;;;17.80;99.50;;;;;;5032109;28;20237;-63
2023/09/15 04:08:11;;;;;;;2.13;1.30;;;17.70;99.50;;;;;;5015597;28;20217;-64
2023/09/15 04:10:38;;;;;;;1.65;1.20;;;17.70;99.50;;;;;;5025191;28;20203;-64
2023/09/15 04:13:05;;;;;;;3.10;1.33;;;17.60;99.60;;;;;;5033282;28;20195;-63
2023/09/15 04:15:32;;;;;;;2.67;1.20;;;17.60;99.60;;;;;;5032767;28;20186;-64
2023/09/15 04:17:59;;;;;;;1.42;1.05;;;17.60;99.70;;;;;;5032401;28;20245;-64
2023/09/15 04:20:30;;;;;;;2.72;1.55;;;17.60;99.70;;;;;;5014271;28;20305;-64
2023/09/15 04:22:58;;;;;;;4.88;1.40;;;17.60;99.70;;;;;;5015024;28;20224;-64
2023/09/15 04:25:25;;;;;;;2.10;1.30;;;17.60;99.80;;;;;;5014342;28;20566;-64
2023/09/15 04:27:52;;;;;;;2.03;1.10;;;17.60;99.80;;;;;;5032670;28;20198;-64
2023/09/15 04:30:20;;;;;;;3.08;1.38;;;17.50;99.80;;;;;;5014801;28;20252;-62
2023/09/15 04:32:53;;;;;;;1.52;1.40;;;17.50;99.80;;;;;;5008518;28;20202;-63
2023/09/15 04:35:20;;;;;;;4.63;1.75;;;17.50;99.90;;;;;;5012809;28;20298;-65
2023/09/15 04:37:48;;;;;;;5.03;1.73;;;17.50;99.90;;;;;;5013729;28;20249;-64
2023/09/15 04:40:16;;;;;;;2.97;1.60;;;17.00;99.60;;;;;;5030602;28;20539;-65
2023/09/15 04:42:44;;;;;;;1.65;1.08;;;17.60;99.90;;;;;;5025452;28;20570;-63
2023/09/15 04:45:12;;;;;;;1.73;1.00;;;17.60;99.90;;;;;;5011098;28;20217;-61
2023/09/15 04:47:41;;;;;;;1.33;1.10;;;17.60;99.80;;;;;;5024590;28;20249;-63
2023/09/15 04:50:26;;;;;;;3.05;1.33;;;17.60;99.80;;;;;;5011220;28;20209;-64
2023/09/15 04:52:55;;;;;;;1.55;0.90;;;17.50;99.80;;;;;;5019473;28;20187;-62
2023/09/15 04:55:24;;;;;;;2.20;1.55;;;17.60;99.90;;;;;;5004520;28;20552;-63
2023/09/15 04:57:51;;;;;;;3.15;1.40;;;17.50;99.90;;;;;;5024085;28;20587;-64
2023/09/15 05:00:23;;;;;;;1.83;1.40;;;17.50;99.90;;;;;;5003026;28;20207;-62
2023/09/15 05:02:56;;;;;;;2.65;1.45;;;17.50;99.90;;;;;;5000028;28;20222;-63
2023/09/15 05:05:23;;;;;;;4.47;1.27;;;17.50;99.90;;;;;;5012859;28;20590;-63
2023/09/15 05:07:50;;;;;;;2.38;1.25;;;17.50;99.80;;;;;;5014688;28;20538;-63
2023/09/15 05:10:18;;;;;;;2.25;1.50;;;17.60;99.80;;;;;;5026279;28;20210;-62
2023/09/15 05:12:47;;;;;;;3.33;1.55;;;17.50;99.80;;;;;;5013888;28;20202;-63
2023/09/15 05:15:14;;;;;;;2.05;1.60;;;17.60;99.90;;;;;;5032206;28;20586;-64
2023/09/15 05:17:41;;;;;;;2.13;1.33;;;17.60;99.90;;;;;;5014087;28;20202;-64
2023/09/15 05:20:09;;;;;;;3.10;1.30;;;17.60;99.80;;;;;;5009333;28;20647;-63
2023/09/15 05:22:37;;;;;;;2.55;1.70;;;17.60;99.80;;;;;;5012745;28;20249;-63
2023/09/15 05:25:05;;;;;;;2.08;1.50;;;17.60;99.80;;;;;;5012915;28;20670;-63
2023/09/15 05:27:32;;;;;;;3.97;1.65;;;17.60;99.90;;;;;;5013941;28;20206;-63
2023/09/15 05:30:02;;;;;;;1.98;1.30;;;17.70;99.90;;;;;;5013633;28;20260;-63
2023/09/15 05:32:33;;;;;;;2.30;1.30;;;17.70;99.90;;;;;;5012054;28;20265;-64
2023/09/15 05:35:01;;;;;;;2.80;1.60;;;17.70;99.90;;;;;;5005148;28;20222;-64
2023/09/15 05:37:28;;;;;;;1.42;1.30;;;17.70;99.90;;;;;;5011689;28;20222;-64
2023/09/15 05:39:55;;;;;;;2.83;1.35;;;17.70;99.90;;;;;;5029295;28;20230;-63
2023/09/15 05:42:23;;;;;;;3.72;1.60;;;17.70;99.90;;;;;;5016500;28;20666;-63
2023/09/15 05:44:50;;;;;;;2.03;1.30;;;17.70;99.90;;;;;;5031372;28;20198;-64
2023/09/15 05:47:18;;;;;;;3.20;1.45;;;17.80;99.90;;;;;;5022814;28;20223;-62
2023/09/15 05:49:45;;;;;;;2.42;1.20;;;17.80;99.90;;;;;;5029968;28;20245;-63
2023/09/15 05:52:12;;;;;;;2.83;1.50;;;17.80;99.90;;;;;;5030584;28;20191;-63
2023/09/15 05:54:40;;;;;;;1.88;1.20;;;17.90;99.90;;;;;;5030227;28;20601;-64
2023/09/15 05:57:10;;;;;;;1.85;1.17;;;17.90;99.90;;;;;;5031609;28;20210;-63
2023/09/15 05:59:37;;;;;;;1.17;1.08;;;17.90;99.90;;;;;;5013046;28;20624;-63
2023/09/15 06:02:04;;;;;;;1.60;1.15;;;18.00;99.90;;;;;;5031015;28;20247;-64
2023/09/15 06:04:33;;;;;;;3.92;1.30;;;18.00;99.90;;;;;;5029612;28;20234;-63
2023/09/15 06:07:00;;;;;;;4.93;1.17;;;18.10;99.90;;;;;;5013547;28;20676;-63
2023/09/15 06:09:27;;;;;;;4.93;1.58;;;18.10;99.90;;;;;;5029431;28;20716;-64
2023/09/15 06:11:54;;;;;;;1.52;0.93;;;18.20;99.90;;;;;;5031291;28;20202;-63
2023/09/15 06:14:21;;;;;;;2.92;1.70;;;18.20;99.90;;;;;;5030759;28;20206;-63
2023/09/15 06:16:48;;;;;;;2.75;1.35;;;18.20;99.90;;;;;;5012851;28;20210;-63
2023/09/15 06:19:15;;;;;;;6.05;2.00;;;18.30;99.90;;;;;;5030334;28;20258;-64
2023/09/15 06:21:44;;;;;;;4.13;2.00;;;18.30;99.90;;;;;;5029840;28;20198;-63
2023/09/15 06:24:11;;;;;;;5.85;2.40;;;18.40;99.90;;;;;;5030636;28;20211;-63
2023/09/15 06:26:38;;;;;;;3.42;2.28;;;18.30;99.90;;;;;;5030989;28;20281;-64
2023/09/15 06:29:05;;;;;;;2.60;1.90;;;18.30;99.90;;;;;;5030146;28;20205;-63
2023/09/15 06:31:32;;;;;;;2.40;1.77;;;18.40;99.90;;;;;;5030429;28;20248;-63
2023/09/15 06:33:59;;;;;;;2.00;1.75;;;18.40;99.90;;;;;;5029317;28;20652;-64
2023/09/15 06:36:26;;;;;;;2.50;1.70;;;18.40;99.90;;;;;;5012350;28;20260;-63
2023/09/15 06:38:55;;;;;;;3.25;1.80;;;18.40;99.90;;;;;;5030089;28;20708;-62
2023/09/15 06:41:22;;;;;;;2.05;1.85;;;18.50;99.90;;;;;;5023936;28;20643;-63
2023/09/15 06:43:49;;;;;;;1.60;1.50;;;18.50;99.90;;;;;;5030060;28;20234;-64
2023/09/15 06:46:21;;;;;;;1.55;1.40;;;18.50;99.90;;;;;;5025862;28;20234;-64
2023/09/15 06:48:49;;;;;;;2.78;1.70;;;18.50;99.90;;;;;;5012213;28;20205;-63
2023/09/15 06:51:16;;;;;;;1.45;1.33;;;18.60;99.90;;;;;;5022817;28;20563;-63
2023/09/15 06:53:44;;;;;;;1.35;1.20;;;18.60;99.90;;;;;;5012157;28;20661;-63
2023/09/15 06:56:13;;;;;;;1.42;1.33;;;18.60;99.90;;;;;;5030689;28;20201;-62
2023/09/15 06:58:40;;;;;;;4.47;1.45;;;18.70;99.90;;;;;;5030227;28;20198;-63
2023/09/15 07:01:07;;;;;;;1.30;1.20;;;18.80;99.90;;;;;;5029917;28;20206;-64
2023/09/15 07:03:34;;;;;;;1.98;1.60;;;18.90;99.90;;;;;;5029371;28;20253;-64
2023/09/15 07:06:02;;;;;;;2.28;1.20;;;18.90;99.90;;;;;;5029312;28;20202;-64
2023/09/15 07:08:29;;;;;;;2.45;1.55;;;19.00;99.90;;;;;;5030495;28;20206;-64
2023/09/15 07:10:56;;;;;;;2.40;1.40;;;19.00;99.90;;;;;;5029495;28;20199;-64
2023/09/15 07:13:24;;;;;;;2.60;1.58;;;19.10;99.90;;;;;;5030489;28;20198;-64
2023/09/15 07:15:52;;;;;;;1.67;1.15;;;19.20;99.90;;;;;;5030121;28;20237;-64
2023/09/15 07:18:19;;;;;;;2.45;1.15;;;19.20;99.90;;;;;;5011757;28;20218;-63
2023/09/15 07:20:46;;;;;;;2.17;1.33;;;19.20;99.90;;;;;;5029718;28;20655;-63
2023/09/15 07:23:13;;;;;;;3.30;1.13;;;19.20;99.90;;;;;;5034192;28;20210;-63
2023/09/15 07:25:40;;;;;;;2.75;1.30;;;19.30;99.90;;;;;;5033419;28;20316;-64
2023/09/15 07:28:07;;;;;;;1.77;1.40;;;19.40;99.90;;;;;;5033495;28;20214;-64
2023/09/15 07:30:35;;;;;;;1.98;1.17;;;19.40;99.90;;;;;;5033822;28;20650;-64
2023/09/15 07:33:03;;;;;;;2.22;1.33;;;19.50;99.90;;;;;;5033095;28;20325;-63
2023/09/15 07:35:30;;;;;;;3.03;1.20;;;19.60;99.90;;;;;;5032652;28;20217;-62
2023/09/15 07:37:57;;;;;;;1.73;1.10;;;19.70;99.90;;;;;;5033780;28;20224;-62
2023/09/15 07:40:24;;;;;;;1.35;1.05;;;19.70;99.90;;;;;;5030923;28;20190;-63
2023/09/15 07:42:51;;;;;;;2.53;1.23;;;19.80;99.90;;;;;;5026535;28;20214;-64
2023/09/15 07:45:18;;;;;;;1.38;1.23;;;19.90;99.90;;;;;;5012127;28;20206;-63
2023/09/15 07:47:47;;;;;;;2.20;1.40;;;20.00;99.90;;;;;;5025849;28;20195;-63
2023/09/15 07:50:16;;;;;;;1.83;1.13;;;20.00;99.90;;;;;;5026813;28;20293;-64
2023/09/15 07:52:45;;;;;;;1.70;1.23;;;20.10;99.90;;;;;;5024571;28;20566;-63
2023/09/15 07:55:12;;;;;;;1.23;1.13;;;20.20;99.90;;;;;;5032412;28;20676;-64
2023/09/15 07:57:40;;;;;;;3.13;1.35;;;20.40;99.90;;;;;;5015608;28;20547;-65
2023/09/15 08:00:10;;;;;;;1.85;1.58;;;21.20;99.70;;;;;;5033022;28;20199;-65
2023/09/15 08:02:40;;;;;;;1.83;1.30;;;22.20;98.70;;;;;;5033115;28;20211;-64
2023/09/15 08:05:09;;;;;;;1.38;1.27;;;23.20;97.50;;;;;;5030229;28;20219;-63
2023/09/15 08:07:44;;;;;;;1.30;1.00;;;24.00;96.20;;;;;;5033553;28;20381;-63
2023/09/15 08:10:12;;;;;;;1.00;1.00;;;24.50;94.90;;;;;;5014570;28;20205;-63
2023/09/15 08:12:39;;;;;;;1.48;1.23;;;24.90;93.60;;;;;;5033594;28;20198;-63
2023/09/15 08:15:07;;;;;;;3.30;1.38;;;25.20;92.70;;;;;;5032866;28;20198;-63
2023/09/15 08:17:34;;;;;;;1.25;1.15;;;25.40;91.70;;;;;;5033013;28;20198;-63
2023/09/15 08:20:03;;;;;;;1.00;0.93;;;25.40;91.10;;;;;;5031546;28;20198;-64
2023/09/15 08:22:34;;;;;;;1.15;1.05;;;25.20;90.90;;;;;;5031849;28;20195;-64
2023/09/15 08:25:01;;;;;;;2.05;1.05;;;24.60;90.70;;;;;;5032366;28;20252;-63
2023/09/15 08:27:28;;;;;;;2.55;1.30;;;24.00;91.10;;;;;;5032529;28;20508;-62
2023/09/15 08:29:55;;;;;;;1.50;1.40;;;23.60;91.60;;;;;;5014906;28;20199;-62
2023/09/15 08:32:22;;;;;;;1.13;0.90;;;23.50;91.70;;;;;;5031735;28;20202;-64
2023/09/15 08:34:49;;;;;;;1.73;1.15;;;23.60;91.90;;;;;;5031006;28;20205;-64
2023/09/15 08:37:17;;;;;;;2.55;1.38;;;24.20;91.60;;;;;;5012204;28;20290;-63
2023/09/15 08:39:46;;;;;;;0.95;0.93;;;24.60;90.60;;;;;;5028531;28;20256;-63
2023/09/15 08:42:18;;;;;;;1.17;1.15;;;24.90;90.10;;;;;;5028180;28;20260;-64
2023/09/15 08:44:46;;;;;;;1.67;1.08;;;25.00;88.10;;;;;;5032332;28;20245;-63
2023/09/15 08:47:13;;;;;;;0.88;0.88;;;24.70;88.00;;;;;;5032196;28;20198;-64
2023/09/15 08:49:43;;;;;;;1.95;1.23;;;24.10;88.70;;;;;;5024066;28;20201;-64
2023/09/15 08:52:11;;;;;;;1.35;1.13;;;23.50;89.70;;;;;;5030958;28;20484;-64
2023/09/15 08:54:38;;;;;;;1.95;1.13;;;23.10;90.00;;;;;;5031568;28;20190;-65
2023/09/15 08:57:07;;;;;;;2.10;1.02;;;22.70;90.40;;;;;;5032590;28;20242;-64
2023/09/15 08:59:34;;;;;;;1.00;0.90;;;22.40;90.70;;;;;;5031417;28;20678;-63
2023/09/15 09:02:02;;;;;;;1.65;0.82;;;22.20;90.90;;;;;;5014449;28;20968;-64
2023/09/15 09:04:29;;;;;;;2.28;1.13;;;22.10;91.10;;;;;;5030356;28;20304;-64
2023/09/15 09:06:58;;;;;;;2.03;0.90;;;22.00;91.30;;;;;;5032078;28;20659;-63
2023/09/15 09:09:29;;;;;;;0.90;0.82;;;22.00;91.40;;;;;;5030881;28;20633;-63
2023/09/15 09:11:57;;;;;;;1.25;0.80;;;21.90;91.60;;;;;;5032241;28;20198;-64
2023/09/15 09:14:25;;;;;;;1.15;0.95;;;22.00;91.60;;;;;;5031589;28;20642;-63
2023/09/15 09:16:53;;;;;;;1.15;1.05;;;22.10;91.30;;;;;;5031699;28;20289;-64
2023/09/15 09:19:20;;;;;;;2.47;1.05;;;22.40;91.10;;;;;;5031496;28;20557;-63
2023/09/15 09:21:47;;;;;;;1.73;0.85;;;23.00;90.80;;;;;;5030889;28;20267;-64
2023/09/15 09:24:15;;;;;;;2.47;1.10;;;23.40;90.20;;;;;;5026669;28;20293;-64
2023/09/15 09:26:54;;;;;;;1.95;0.95;;;23.50;90.00;;;;;;5031519;28;20653;-65
2023/09/15 09:29:26;;;;;;;0.93;0.90;;;24.00;89.50;;;;;;5031509;28;20272;-63
2023/09/15 09:31:56;;;;;;;1.90;0.98;;;24.40;87.80;;;;;;5031923;28;20194;-63
2023/09/15 09:34:25;;;;;;;0.88;0.85;;;24.90;87.00;;;;;;5031108;28;20202;-63
2023/09/15 09:36:52;;;;;;;1.80;0.93;;;25.30;84.90;;;;;;5029669;28;20608;-63
2023/09/15 09:39:19;;;;;;;0.70;0.70;;;25.60;83.90;;;;;;5013564;28;20218;-64
2023/09/15 09:41:49;;;;;;;0.75;0.70;;;25.90;83.20;;;;;;5028231;28;20198;-63
2023/09/15 09:44:20;;;;;;;0.80;0.80;;;26.10;82.30;;;;;;5031540;28;20215;-62
2023/09/15 09:46:53;;;;;;;0.60;0.60;;;26.40;81.50;;;;;;5031136;28;20597;-63
2023/09/15 09:49:21;;;;;;;0.68;0.68;;;26.70;80.40;;;;;;5029087;28;20199;-64
2023/09/15 09:51:51;;;;;;;1.00;0.70;;;27.00;79.90;;;;;;5030496;28;20230;-64
2023/09/15 09:54:18;;;;;;;0.63;0.63;;;27.20;78.00;;;;;;5030586;28;20244;-62
2023/09/15 09:56:49;;;;;;;3.03;0.75;;;27.40;77.20;;;;;;5031091;28;20202;-64
2023/09/15 09:59:17;;;;;;;2.55;1.00;;;27.50;76.30;;;;;;5030573;28;20686;-63
2023/09/15 10:01:44;;;;;;;0.85;0.70;;;27.50;75.40;;;;;;5028419;28;20290;-64
2023/09/15 10:04:12;;;;;;;1.58;0.80;;;27.50;74.90;;;;;;5030081;28;20229;-64
2023/09/15 10:06:39;;;;;;;0.80;0.80;;;27.60;74.60;;;;;;5030224;28;20226;-64
2023/09/15 10:09:07;;;;;;;0.80;0.80;;;27.70;73.60;;;;;;5030569;28;20305;-64
2023/09/15 10:11:35;;;;;;;0.60;0.60;;;27.70;72.60;;;;;;5030800;28;20199;-64
2023/09/15 10:14:03;;;;;;;0.65;0.65;;;27.60;72.20;;;;;;5030535;28;20230;-64
2023/09/15 10:16:32;;;;;;;0.88;0.88;;;27.60;71.00;;;;;;5030751;28;20198;-64
2023/09/15 10:19:03;;;;;;;1.00;1.00;;;27.50;70.70;;;;;;5025385;28;20210;-63
2023/09/15 10:21:34;;;;;;;1.05;0.98;;;27.30;70.40;;;;;;5029982;28;20194;-63
2023/09/15 10:24:06;;;;;;;0.88;0.80;;;27.40;70.90;;;;;;5027176;28;20335;-64
2023/09/15 10:26:33;;;;;;;1.10;1.10;;;27.50;70.50;;;;;;5030810;28;20264;-64
2023/09/15 10:29:01;;;;;;;0.95;0.85;;;27.50;70.20;;;;;;5030040;28;20280;-63
2023/09/15 10:31:30;;;;;;;0.77;0.77;;;27.50;69.60;;;;;;5030585;28;20200;-63
2023/09/15 10:34:01;;;;;;;1.20;0.80;;;27.50;69.20;;;;;;5029757;28;20557;-64
2023/09/15 10:36:29;;;;;;;1.75;1.00;;;27.60;69.20;;;;;;5011913;28;20297;-64
2023/09/15 10:38:59;;;;;;;1.33;0.90;;;27.60;68.80;;;;;;5027280;28;20223;-64
2023/09/15 10:41:27;;;;;;;0.80;0.80;;;27.60;68.80;;;;;;5025545;28;20204;-63
2023/09/15 10:43:55;;;;;;;2.03;1.23;;;27.50;68.60;;;;;;5021298;28;20257;-65
2023/09/15 10:46:22;;;;;;;1.13;0.90;;;27.40;68.20;;;;;;5023063;28;20194;-67
2023/09/15 10:48:51;;;;;;;0.90;0.90;;;27.30;69.80;;;;;;5021258;28;20199;-65
2023/09/15 10:51:19;;;;;;;1.00;1.00;;;27.40;71.00;;;;;;5017698;28;20206;-66
2023/09/15 10:53:48;;;;;;;0.70;0.70;;;27.50;71.00;;;;;;5006138;28;20196;-66
2023/09/15 10:56:18;;;;;;;0.88;0.88;;;27.70;70.60;;;;;;5021476;28;20221;-66
2023/09/15 10:58:47;;;;;;;0.93;0.93;;;27.60;68.60;;;;;;5021728;28;20725;-66
2023/09/15 11:01:15;;;;;;;0.80;0.80;;;27.30;67.80;;;;;;5021207;28;20267;-66
2023/09/15 11:03:45;;;;;;;0.77;0.77;;;27.00;68.30;;;;;;5021000;28;20323;-67
2023/09/15 11:06:14;;;;;;;0.80;0.80;;;26.80;68.50;;;;;;5018793;28;20195;-66
2023/09/15 11:08:42;;;;;;;1.42;1.00;;;26.70;68.50;;;;;;5024931;28;20207;-67
2023/09/15 11:11:10;;;;;;;0.82;0.82;;;26.70;68.60;;;;;;5012098;28;20714;-66
2023/09/15 11:13:39;;;;;;;0.70;0.70;;;26.70;68.90;;;;;;5024670;28;20708;-65
2023/09/15 11:16:07;;;;;;;1.10;0.80;;;26.80;69.70;;;;;;5027874;28;20264;-65
2023/09/15 11:18:35;;;;;;;0.90;0.90;;;27.00;69.40;;;;;;5024006;28;20238;-66
2023/09/15 11:21:02;;;;;;;0.93;0.90;;;27.00;69.10;;;;;;5007771;28;20264;-65
2023/09/15 11:23:29;;;;;;;1.15;1.05;;;27.10;69.40;;;;;;5011934;28;20745;-66
2023/09/15 11:26:01;;;;;;;1.13;1.13;;;27.10;69.60;;;;;;5025809;28;20559;-65
2023/09/15 11:28:29;;;;;;;1.00;1.00;;;27.00;69.60;;;;;;5023508;28;20611;-65
2023/09/15 11:30:58;;;;;;;2.25;0.77;;;27.00;69.70;;;;;;5027774;28;20264;-66
2023/09/15 11:33:25;;;;;;;1.67;1.00;;;27.10;69.70;;;;;;5020744;28;20191;-64
2023/09/15 11:35:53;;;;;;;0.80;0.80;;;27.10;69.50;;;;;;5023184;28;20274;-66
2023/09/15 11:38:21;;;;;;;0.88;0.88;;;27.10;69.80;;;;;;5021833;28;20205;-66
2023/09/15 11:40:49;;;;;;;0.90;0.90;;;26.90;69.60;;;;;;5010228;28;20190;-65
2023/09/15 11:43:22;;;;;;;1.13;1.02;;;26.80;69.90;;;;;;5007522;28;20210;-64
2023/09/15 11:45:50;;;;;;;4.28;1.20;;;26.80;70.10;;;;;;5011408;28;20250;-65
2023/09/15 11:48:19;;;;;;;2.25;1.30;;;26.80;69.70;;;;;;5027895;28;20199;-65
2023/09/15 11:50:49;;;;;;;0.80;0.80;;;26.70;69.70;;;;;;5028343;28;20214;-65
2023/09/15 11:53:27;;;;;;;1.00;1.00;;;26.60;69.50;;;;;;5023646;28;21016;-66
2023/09/15 11:55:54;;;;;;;1.08;0.95;;;26.50;69.80;;;;;;5021348;28;20592;-66
2023/09/15 11:58:22;;;;;;;0.80;0.80;;;26.50;69.70;;;;;;5028246;28;20205;-66
2023/09/15 12:00:51;;;;;;;0.70;0.70;;;26.50;70.10;;;;;;5026658;28;20679;-66
2023/09/15 12:03:20;;;;;;;0.95;0.70;;;26.60;70.30;;;;;;5021196;28;20225;-65
2023/09/15 12:05:48;;;;;;;0.70;0.70;;;26.70;70.40;;;;;;5006653;28;20334;-66
2023/09/15 12:08:16;;;;;;;0.80;0.80;;;26.80;70.20;;;;;;5029548;28;20211;-66
2023/09/15 12:10:44;;;;;;;0.80;0.80;;;27.00;70.10;;;;;;5031954;28;20201;-65
2023/09/15 12:13:11;;;;;;;2.10;1.00;;;27.10;70.10;;;;;;5027917;28;20599;-66
2023/09/15 12:15:39;;;;;;;1.20;1.10;;;27.10;69.70;;;;;;5007830;28;20237;-66
2023/09/15 12:18:07;;;;;;;1.27;1.17;;;27.10;69.60;;;;;;5032650;28;20601;-65
2023/09/15 12:20:36;;;;;;;0.95;0.90;;;27.00;69.60;;;;;;5009510;28;20186;-66
2023/09/15 12:23:11;;;;;;;1.00;1.00;;;27.00;69.70;;;;;;5032857;28;20557;-65
2023/09/15 12:25:39;;;;;;;0.75;0.75;;;27.00;69.40;;;;;;5031413;28;20206;-66
2023/09/15 12:28:07;;;;;;;1.08;0.85;;;26.90;69.50;;;;;;5032708;28;20563;-66
2023/09/15 12:30:35;;;;;;;0.90;0.90;;;26.90;69.60;;;;;;5032350;28;20245;-66
2023/09/15 12:33:05;;;;;;;0.88;0.88;;;26.80;69.60;;;;;;5032340;28;20198;-66
2023/09/15 12:35:40;;;;;;;1.48;1.30;;;26.70;69.30;;;;;;5032213;28;20273;-66
2023/09/15 12:38:07;;;;;;;1.27;1.05;;;26.50;69.60;;;;;;5032491;28;20289;-66
2023/09/15 12:40:34;;;;;;;0.82;0.82;;;26.60;70.00;;;;;;5025188;28;20273;-66
2023/09/15 12:43:01;;;;;;;2.60;0.80;;;26.90;69.70;;;;;;5031122;28;20214;-65
2023/09/15 12:45:31;;;;;;;0.70;0.70;;;27.40;69.00;;;;;;5030061;28;20269;-65
2023/09/15 12:47:58;;;;;;;1.33;0.90;;;27.80;68.10;;;;;;5026379;28;20238;-66
2023/09/15 12:50:25;;;;;;;1.13;0.90;;;28.20;67.30;;;;;;5029539;28;20657;-66
2023/09/15 12:52:54;;;;;;;0.68;0.68;;;28.60;66.50;;;;;;5029906;28;20198;-66
2023/09/15 12:55:23;;;;;;;0.60;0.60;;;28.90;65.90;;;;;;5026438;28;20186;-65